sensor_id;sensor_type;location;lat;lon;timestamp;temperature;humidity
66312;HTU21D;53114;51.138;6.008;2022-07-18T00:02:23;16.43;88.80
66312;HTU21D;53114;51.138;6.008;2022-07-18T00:04:48;16.42;89.25
66312;HTU21D;53114;51.138;6.008;2022-07-18T00:07:15;16.39;92.75
66312;HTU21D;53114;51.138;6.008;2022-07-18T00:09:41;16.34;95.39
66312;HTU21D;53114;51.138;6.008;2022-07-18T00:12:09;16.29;96.79
66312;HTU21D;53114;51.138;6.008;2022-07-18T00:14:37;16.21;96.69
66312;HTU21D;53114;51.138;6.008;2022-07-18T00:17:05;16.19;96.48
66312;HTU21D;53114;51.138;6.008;2022-07-18T00:19:32;16.16;95.55
66312;HTU21D;53114;51.138;6.008;2022-07-18T00:21:58;16.14;95.09
66312;HTU21D;53114;51.138;6.008;2022-07-18T00:24:24;16.10;94.53
66312;HTU21D;53114;51.138;6.008;2022-07-18T00:26:49;16.06;94.27
66312;HTU21D;53114;51.138;6.008;2022-07-18T00:29:15;16.03;93.71
66312;HTU21D;53114;51.138;6.008;2022-07-18T00:31:41;16.01;93.87
66312;HTU21D;53114;51.138;6.008;2022-07-18T00:34:07;15.97;93.72
66312;HTU21D;53114;51.138;6.008;2022-07-18T00:36:33;15.92;93.82
66312;HTU21D;53114;51.138;6.008;2022-07-18T00:38:59;15.92;93.72
66312;HTU21D;53114;51.138;6.008;2022-07-18T00:41:25;15.93;93.58
66312;HTU21D;53114;51.138;6.008;2022-07-18T00:43:51;15.91;93.46
66312;HTU21D;53114;51.138;6.008;2022-07-18T00:46:22;15.91;93.34
66312;HTU21D;53114;51.138;6.008;2022-07-18T00:48:49;15.88;93.19
66312;HTU21D;53114;51.138;6.008;2022-07-18T00:51:15;15.85;93.23
66312;HTU21D;53114;51.138;6.008;2022-07-18T00:53:44;15.78;94.17
66312;HTU21D;53114;51.138;6.008;2022-07-18T00:56:11;15.76;95.45
66312;HTU21D;53114;51.138;6.008;2022-07-18T00:58:38;15.73;96.03
66312;HTU21D;53114;51.138;6.008;2022-07-18T01:01:04;15.69;95.42
66312;HTU21D;53114;51.138;6.008;2022-07-18T01:03:49;15.67;95.18
66312;HTU21D;53114;51.138;6.008;2022-07-18T01:06:14;15.63;95.16
66312;HTU21D;53114;51.138;6.008;2022-07-18T01:08:43;15.59;95.10
66312;HTU21D;53114;51.138;6.008;2022-07-18T01:11:10;15.55;94.77
66312;HTU21D;53114;51.138;6.008;2022-07-18T01:13:37;15.52;95.31
66312;HTU21D;53114;51.138;6.008;2022-07-18T01:16:04;15.48;95.76
66312;HTU21D;53114;51.138;6.008;2022-07-18T01:18:30;15.49;96.31
66312;HTU21D;53114;51.138;6.008;2022-07-18T01:20:56;15.48;96.18
66312;HTU21D;53114;51.138;6.008;2022-07-18T01:23:22;15.44;95.94
66312;HTU21D;53114;51.138;6.008;2022-07-18T01:25:48;15.41;95.57
66312;HTU21D;53114;51.138;6.008;2022-07-18T01:28:14;15.38;95.23
66312;HTU21D;53114;51.138;6.008;2022-07-18T01:30:40;15.34;95.79
66312;HTU21D;53114;51.138;6.008;2022-07-18T01:33:07;15.29;96.91
66312;HTU21D;53114;51.138;6.008;2022-07-18T01:35:32;15.27;97.24
66312;HTU21D;53114;51.138;6.008;2022-07-18T01:38:00;15.24;97.18
66312;HTU21D;53114;51.138;6.008;2022-07-18T01:40:28;15.18;97.41
66312;HTU21D;53114;51.138;6.008;2022-07-18T01:42:54;15.12;97.68
66312;HTU21D;53114;51.138;6.008;2022-07-18T01:45:21;15.07;98.01
66312;HTU21D;53114;51.138;6.008;2022-07-18T01:47:47;15.03;98.22
66312;HTU21D;53114;51.138;6.008;2022-07-18T01:50:15;15.00;98.68
66312;HTU21D;53114;51.138;6.008;2022-07-18T01:52:41;14.97;98.58
66312;HTU21D;53114;51.138;6.008;2022-07-18T01:55:09;14.94;98.59
66312;HTU21D;53114;51.138;6.008;2022-07-18T01:57:36;14.96;98.86
66312;HTU21D;53114;51.138;6.008;2022-07-18T02:00:04;14.96;99.19
66312;HTU21D;53114;51.138;6.008;2022-07-18T02:02:30;14.94;99.58
66312;HTU21D;53114;51.138;6.008;2022-07-18T02:04:56;14.93;99.29
66312;HTU21D;53114;51.138;6.008;2022-07-18T02:07:30;14.91;98.83
66312;HTU21D;53114;51.138;6.008;2022-07-18T02:09:57;14.87;99.40
66312;HTU21D;53114;51.138;6.008;2022-07-18T02:12:24;14.83;100.03
66312;HTU21D;53114;51.138;6.008;2022-07-18T02:14:50;14.80;100.56
66312;HTU21D;53114;51.138;6.008;2022-07-18T02:17:17;14.78;100.90
66312;HTU21D;53114;51.138;6.008;2022-07-18T02:19:43;14.77;101.26
66312;HTU21D;53114;51.138;6.008;2022-07-18T02:22:09;14.74;101.57
66312;HTU21D;53114;51.138;6.008;2022-07-18T02:24:35;14.75;101.64
66312;HTU21D;53114;51.138;6.008;2022-07-18T02:27:01;14.77;101.51
66312;HTU21D;53114;51.138;6.008;2022-07-18T02:29:27;14.80;101.05
66312;HTU21D;53114;51.138;6.008;2022-07-18T02:31:53;14.75;100.93
66312;HTU21D;53114;51.138;6.008;2022-07-18T02:34:19;14.69;101.04
66312;HTU21D;53114;51.138;6.008;2022-07-18T02:36:45;14.65;101.03
66312;HTU21D;53114;51.138;6.008;2022-07-18T02:39:11;14.64;101.03
66312;HTU21D;53114;51.138;6.008;2022-07-18T02:41:37;14.63;101.27
66312;HTU21D;53114;51.138;6.008;2022-07-18T02:44:03;14.59;101.77
66312;HTU21D;53114;51.138;6.008;2022-07-18T02:46:29;14.56;102.39
66312;HTU21D;53114;51.138;6.008;2022-07-18T02:48:55;14.54;102.79
66312;HTU21D;53114;51.138;6.008;2022-07-18T02:51:21;14.54;103.12
66312;HTU21D;53114;51.138;6.008;2022-07-18T02:53:47;14.51;102.83
66312;HTU21D;53114;51.138;6.008;2022-07-18T02:56:13;14.45;102.84
66312;HTU21D;53114;51.138;6.008;2022-07-18T02:58:40;14.43;103.52
66312;HTU21D;53114;51.138;6.008;2022-07-18T03:01:05;14.43;104.82
66312;HTU21D;53114;51.138;6.008;2022-07-18T03:03:31;14.39;105.35
66312;HTU21D;53114;51.138;6.008;2022-07-18T03:05:57;14.34;105.77
66312;HTU21D;53114;51.138;6.008;2022-07-18T03:08:23;14.27;105.72
66312;HTU21D;53114;51.138;6.008;2022-07-18T03:10:49;14.21;105.31
66312;HTU21D;53114;51.138;6.008;2022-07-18T03:13:15;14.22;105.31
66312;HTU21D;53114;51.138;6.008;2022-07-18T03:15:40;14.21;105.27
66312;HTU21D;53114;51.138;6.008;2022-07-18T03:18:06;14.22;104.99
66312;HTU21D;53114;51.138;6.008;2022-07-18T03:20:32;14.19;104.89
66312;HTU21D;53114;51.138;6.008;2022-07-18T03:22:58;14.14;105.11
66312;HTU21D;53114;51.138;6.008;2022-07-18T03:25:25;14.11;104.63
66312;HTU21D;53114;51.138;6.008;2022-07-18T03:27:51;14.09;104.34
66312;HTU21D;53114;51.138;6.008;2022-07-18T03:30:17;14.11;104.17
66312;HTU21D;53114;51.138;6.008;2022-07-18T03:32:43;14.14;104.26
66312;HTU21D;53114;51.138;6.008;2022-07-18T03:35:09;14.14;104.34
66312;HTU21D;53114;51.138;6.008;2022-07-18T03:37:35;14.12;104.88
66312;HTU21D;53114;51.138;6.008;2022-07-18T03:40:01;14.07;105.00
66312;HTU21D;53114;51.138;6.008;2022-07-18T03:42:27;14.06;105.02
66312;HTU21D;53114;51.138;6.008;2022-07-18T03:44:53;14.03;105.79
66312;HTU21D;53114;51.138;6.008;2022-07-18T03:47:18;14.00;106.16
66312;HTU21D;53114;51.138;6.008;2022-07-18T03:49:44;13.97;106.27
66312;HTU21D;53114;51.138;6.008;2022-07-18T03:52:10;13.99;106.97
66312;HTU21D;53114;51.138;6.008;2022-07-18T03:54:36;14.00;107.24
66312;HTU21D;53114;51.138;6.008;2022-07-18T03:57:02;14.03;107.03
66312;HTU21D;53114;51.138;6.008;2022-07-18T03:59:28;14.03;107.01
66312;HTU21D;53114;51.138;6.008;2022-07-18T04:01:53;14.01;106.78
66312;HTU21D;53114;51.138;6.008;2022-07-18T04:04:19;14.03;106.86
66312;HTU21D;53114;51.138;6.008;2022-07-18T04:06:47;14.00;107.34
66312;HTU21D;53114;51.138;6.008;2022-07-18T04:09:13;13.98;107.62
66312;HTU21D;53114;51.138;6.008;2022-07-18T04:11:39;13.98;108.13
66312;HTU21D;53114;51.138;6.008;2022-07-18T04:14:05;13.95;108.22
66312;HTU21D;53114;51.138;6.008;2022-07-18T04:16:31;13.95;108.77
66312;HTU21D;53114;51.138;6.008;2022-07-18T04:18:57;13.95;108.94
66312;HTU21D;53114;51.138;6.008;2022-07-18T04:21:23;13.99;109.12
66312;HTU21D;53114;51.138;6.008;2022-07-18T04:23:49;14.04;108.91
66312;HTU21D;53114;51.138;6.008;2022-07-18T04:26:14;14.07;108.99
66312;HTU21D;53114;51.138;6.008;2022-07-18T04:28:40;14.10;109.39
66312;HTU21D;53114;51.138;6.008;2022-07-18T04:31:06;14.17;109.36
66312;HTU21D;53114;51.138;6.008;2022-07-18T04:33:32;14.21;109.33
66312;HTU21D;53114;51.138;6.008;2022-07-18T04:35:58;14.25;109.61
66312;HTU21D;53114;51.138;6.008;2022-07-18T04:38:24;14.30;109.76
66312;HTU21D;53114;51.138;6.008;2022-07-18T04:40:50;14.37;109.63
66312;HTU21D;53114;51.138;6.008;2022-07-18T04:43:15;14.45;109.33
66312;HTU21D;53114;51.138;6.008;2022-07-18T04:45:41;14.50;109.07
66312;HTU21D;53114;51.138;6.008;2022-07-18T04:48:07;14.54;109.00
66312;HTU21D;53114;51.138;6.008;2022-07-18T04:50:33;14.62;109.20
66312;HTU21D;53114;51.138;6.008;2022-07-18T04:52:59;14.69;109.37
66312;HTU21D;53114;51.138;6.008;2022-07-18T04:55:26;14.73;109.53
66312;HTU21D;53114;51.138;6.008;2022-07-18T04:57:52;14.78;109.66
66312;HTU21D;53114;51.138;6.008;2022-07-18T05:00:21;14.82;109.98
66312;HTU21D;53114;51.138;6.008;2022-07-18T05:02:50;14.85;110.23
66312;HTU21D;53114;51.138;6.008;2022-07-18T05:05:17;14.89;110.41
66312;HTU21D;53114;51.138;6.008;2022-07-18T05:07:44;14.95;110.33
66312;HTU21D;53114;51.138;6.008;2022-07-18T05:10:13;15.00;110.19
66312;HTU21D;53114;51.138;6.008;2022-07-18T05:12:42;15.06;110.13
66312;HTU21D;53114;51.138;6.008;2022-07-18T05:15:11;15.13;110.78
66312;HTU21D;53114;51.138;6.008;2022-07-18T05:17:39;15.17;110.88
66312;HTU21D;53114;51.138;6.008;2022-07-18T05:20:07;15.24;110.68
66312;HTU21D;53114;51.138;6.008;2022-07-18T05:22:34;15.32;109.87
66312;HTU21D;53114;51.138;6.008;2022-07-18T05:25:02;15.39;109.86
66312;HTU21D;53114;51.138;6.008;2022-07-18T05:27:29;15.47;109.35
66312;HTU21D;53114;51.138;6.008;2022-07-18T05:29:55;15.57;109.01
66312;HTU21D;53114;51.138;6.008;2022-07-18T05:32:21;15.68;108.12
66312;HTU21D;53114;51.138;6.008;2022-07-18T05:34:47;15.76;107.72
66312;HTU21D;53114;51.138;6.008;2022-07-18T05:37:13;15.87;107.20
66312;HTU21D;53114;51.138;6.008;2022-07-18T05:39:39;15.96;106.91
66312;HTU21D;53114;51.138;6.008;2022-07-18T05:42:05;16.05;107.20
66312;HTU21D;53114;51.138;6.008;2022-07-18T05:44:31;16.15;106.95
66312;HTU21D;53114;51.138;6.008;2022-07-18T05:46:57;16.25;107.18
66312;HTU21D;53114;51.138;6.008;2022-07-18T05:49:22;16.32;106.82
66312;HTU21D;53114;51.138;6.008;2022-07-18T05:51:48;16.42;107.33
66312;HTU21D;53114;51.138;6.008;2022-07-18T05:54:14;16.54;107.62
66312;HTU21D;53114;51.138;6.008;2022-07-18T05:56:52;16.64;107.47
66312;HTU21D;53114;51.138;6.008;2022-07-18T05:59:20;16.75;107.17
66312;HTU21D;53114;51.138;6.008;2022-07-18T06:01:46;16.85;107.17
66312;HTU21D;53114;51.138;6.008;2022-07-18T06:04:12;16.95;106.60
66312;HTU21D;53114;51.138;6.008;2022-07-18T06:06:39;17.09;107.20
66312;HTU21D;53114;51.138;6.008;2022-07-18T06:09:05;17.31;106.88
66312;HTU21D;53114;51.138;6.008;2022-07-18T06:11:32;17.54;106.62
66312;HTU21D;53114;51.138;6.008;2022-07-18T06:13:58;17.70;106.01
66312;HTU21D;53114;51.138;6.008;2022-07-18T06:16:24;17.82;106.01
66312;HTU21D;53114;51.138;6.008;2022-07-18T06:18:50;17.92;105.72
66312;HTU21D;53114;51.138;6.008;2022-07-18T06:21:16;18.05;105.41
66312;HTU21D;53114;51.138;6.008;2022-07-18T06:23:42;18.19;105.76
66312;HTU21D;53114;51.138;6.008;2022-07-18T06:26:08;18.36;106.11
66312;HTU21D;53114;51.138;6.008;2022-07-18T06:28:33;18.54;105.11
66312;HTU21D;53114;51.138;6.008;2022-07-18T06:31:01;18.71;104.88
66312;HTU21D;53114;51.138;6.008;2022-07-18T06:33:29;18.87;103.49
66312;HTU21D;53114;51.138;6.008;2022-07-18T06:35:56;19.03;101.65
66312;HTU21D;53114;51.138;6.008;2022-07-18T06:38:22;19.17;100.68
66312;HTU21D;53114;51.138;6.008;2022-07-18T06:40:51;19.30;101.00
66312;HTU21D;53114;51.138;6.008;2022-07-18T06:43:17;19.40;100.73
66312;HTU21D;53114;51.138;6.008;2022-07-18T06:45:46;19.44;99.70
66312;HTU21D;53114;51.138;6.008;2022-07-18T06:48:16;19.53;100.19
66312;HTU21D;53114;51.138;6.008;2022-07-18T06:50:42;19.62;98.84
66312;HTU21D;53114;51.138;6.008;2022-07-18T06:53:08;19.76;98.85
66312;HTU21D;53114;51.138;6.008;2022-07-18T06:55:37;19.96;97.93
66312;HTU21D;53114;51.138;6.008;2022-07-18T06:58:03;20.17;97.81
66312;HTU21D;53114;51.138;6.008;2022-07-18T07:00:29;20.40;94.76
66312;HTU21D;53114;51.138;6.008;2022-07-18T07:02:55;20.56;94.49
66312;HTU21D;53114;51.138;6.008;2022-07-18T07:05:21;20.63;93.62
66312;HTU21D;53114;51.138;6.008;2022-07-18T07:07:48;20.65;93.47
66312;HTU21D;53114;51.138;6.008;2022-07-18T07:10:16;20.73;91.49
66312;HTU21D;53114;51.138;6.008;2022-07-18T07:12:48;20.81;91.03
66312;HTU21D;53114;51.138;6.008;2022-07-18T07:15:17;20.95;89.35
66312;HTU21D;53114;51.138;6.008;2022-07-18T07:17:43;21.09;89.00
66312;HTU21D;53114;51.138;6.008;2022-07-18T07:20:09;21.19;87.34
66312;HTU21D;53114;51.138;6.008;2022-07-18T07:22:48;21.19;87.45
66312;HTU21D;53114;51.138;6.008;2022-07-18T07:25:16;21.22;87.57
66312;HTU21D;53114;51.138;6.008;2022-07-18T07:27:43;21.35;84.93
66312;HTU21D;53114;51.138;6.008;2022-07-18T07:30:11;21.77;80.79
66312;HTU21D;53114;51.138;6.008;2022-07-18T07:32:38;22.36;78.40
66312;HTU21D;53114;51.138;6.008;2022-07-18T07:35:05;22.64;75.85
66312;HTU21D;53114;51.138;6.008;2022-07-18T07:37:42;22.76;75.46
66312;HTU21D;53114;51.138;6.008;2022-07-18T07:40:09;22.82;74.61
66312;HTU21D;53114;51.138;6.008;2022-07-18T07:42:36;22.98;75.92
66312;HTU21D;53114;51.138;6.008;2022-07-18T07:45:03;23.29;74.63
66312;HTU21D;53114;51.138;6.008;2022-07-18T07:47:30;24.53;69.80
66312;HTU21D;53114;51.138;6.008;2022-07-18T07:49:56;26.86;59.16
66312;HTU21D;53114;51.138;6.008;2022-07-18T07:52:22;29.28;48.34
66312;HTU21D;53114;51.138;6.008;2022-07-18T07:54:51;31.48;41.18
66312;HTU21D;53114;51.138;6.008;2022-07-18T07:57:18;33.56;35.61
66312;HTU21D;53114;51.138;6.008;2022-07-18T07:59:44;35.09;32.53
66312;HTU21D;53114;51.138;6.008;2022-07-18T08:02:10;35.97;29.39
66312;HTU21D;53114;51.138;6.008;2022-07-18T08:04:36;36.68;28.06
66312;HTU21D;53114;51.138;6.008;2022-07-18T08:07:02;37.41;25.86
66312;HTU21D;53114;51.138;6.008;2022-07-18T08:09:28;38.08;25.07
66312;HTU21D;53114;51.138;6.008;2022-07-18T08:11:54;39.27;23.39
66312;HTU21D;53114;51.138;6.008;2022-07-18T08:14:20;40.09;21.24
66312;HTU21D;53114;51.138;6.008;2022-07-18T08:16:46;40.74;19.10
66312;HTU21D;53114;51.138;6.008;2022-07-18T08:19:12;41.12;18.93
66312;HTU21D;53114;51.138;6.008;2022-07-18T08:21:38;41.51;18.42
66312;HTU21D;53114;51.138;6.008;2022-07-18T08:24:04;42.22;16.35
66312;HTU21D;53114;51.138;6.008;2022-07-18T08:26:30;43.04;15.68
66312;HTU21D;53114;51.138;6.008;2022-07-18T08:28:56;43.42;15.02
66312;HTU21D;53114;51.138;6.008;2022-07-18T08:31:22;43.50;15.34
66312;HTU21D;53114;51.138;6.008;2022-07-18T08:33:48;43.68;14.38
66312;HTU21D;53114;51.138;6.008;2022-07-18T08:36:14;43.69;14.23
66312;HTU21D;53114;51.138;6.008;2022-07-18T08:38:40;43.77;14.07
66312;HTU21D;53114;51.138;6.008;2022-07-18T08:41:06;44.18;14.12
66312;HTU21D;53114;51.138;6.008;2022-07-18T08:43:33;44.66;13.19
66312;HTU21D;53114;51.138;6.008;2022-07-18T08:46:05;45.15;12.78
66312;HTU21D;53114;51.138;6.008;2022-07-18T08:48:32;45.33;12.76
66312;HTU21D;53114;51.138;6.008;2022-07-18T08:51:00;45.28;12.62
66312;HTU21D;53114;51.138;6.008;2022-07-18T08:53:26;45.26;11.94
66312;HTU21D;53114;51.138;6.008;2022-07-18T08:55:52;45.74;11.46
66312;HTU21D;53114;51.138;6.008;2022-07-18T08:58:19;45.99;11.20
66312;HTU21D;53114;51.138;6.008;2022-07-18T09:00:46;46.00;11.30
66312;HTU21D;53114;51.138;6.008;2022-07-18T09:03:12;46.34;10.86
66312;HTU21D;53114;51.138;6.008;2022-07-18T09:05:38;46.67;10.03
66312;HTU21D;53114;51.138;6.008;2022-07-18T09:08:12;46.82;9.74
66312;HTU21D;53114;51.138;6.008;2022-07-18T09:10:50;46.92;9.71
66312;HTU21D;53114;51.138;6.008;2022-07-18T09:13:18;47.07;9.54
66312;HTU21D;53114;51.138;6.008;2022-07-18T09:15:59;46.97;10.10
66312;HTU21D;53114;51.138;6.008;2022-07-18T09:18:33;46.82;9.13
66312;HTU21D;53114;51.138;6.008;2022-07-18T09:21:14;46.95;8.20
66312;HTU21D;53114;51.138;6.008;2022-07-18T09:23:44;47.16;8.50
66312;HTU21D;53114;51.138;6.008;2022-07-18T09:26:11;47.07;9.39
66312;HTU21D;53114;51.138;6.008;2022-07-18T09:28:52;47.02;8.58
66312;HTU21D;53114;51.138;6.008;2022-07-18T09:31:20;47.09;8.37
66312;HTU21D;53114;51.138;6.008;2022-07-18T09:33:57;47.13;7.39
66312;HTU21D;53114;51.138;6.008;2022-07-18T09:36:25;46.78;8.02
66312;HTU21D;53114;51.138;6.008;2022-07-18T09:38:52;46.48;8.56
66312;HTU21D;53114;51.138;6.008;2022-07-18T09:41:29;46.58;8.68
66312;HTU21D;53114;51.138;6.008;2022-07-18T09:43:59;47.01;8.12
66312;HTU21D;53114;51.138;6.008;2022-07-18T09:46:24;47.34;7.08
66312;HTU21D;53114;51.138;6.008;2022-07-18T09:49:10;47.49;6.66
66312;HTU21D;53114;51.138;6.008;2022-07-18T09:51:36;47.63;6.59
66312;HTU21D;53114;51.138;6.008;2022-07-18T09:54:02;47.70;7.11
66312;HTU21D;53114;51.138;6.008;2022-07-18T09:56:30;47.53;6.47
66312;HTU21D;53114;51.138;6.008;2022-07-18T09:58:59;47.37;6.69
66312;HTU21D;53114;51.138;6.008;2022-07-18T10:01:25;47.07;7.47
66312;HTU21D;53114;51.138;6.008;2022-07-18T10:03:51;46.64;7.64
66312;HTU21D;53114;51.138;6.008;2022-07-18T10:06:18;46.24;8.53
66312;HTU21D;53114;51.138;6.008;2022-07-18T10:08:44;46.28;7.66
66312;HTU21D;53114;51.138;6.008;2022-07-18T10:11:10;46.43;7.34
66312;HTU21D;53114;51.138;6.008;2022-07-18T10:13:37;46.42;7.54
66312;HTU21D;53114;51.138;6.008;2022-07-18T10:16:04;45.98;7.69
66312;HTU21D;53114;51.138;6.008;2022-07-18T10:18:33;46.21;7.02
66312;HTU21D;53114;51.138;6.008;2022-07-18T10:23:40;46.14;6.18
66312;HTU21D;53114;51.138;6.008;2022-07-18T10:26:11;45.83;6.38
66312;HTU21D;53114;51.138;6.008;2022-07-18T10:31:34;45.56;7.59
66312;HTU21D;53114;51.138;6.008;2022-07-18T10:39:15;46.51;6.55
66312;HTU21D;53114;51.138;6.008;2022-07-18T10:57:39;45.61;8.78
66312;HTU21D;53114;51.138;6.008;2022-07-18T11:00:17;45.85;9.10
66312;HTU21D;53114;51.138;6.008;2022-07-18T11:03:05;45.38;9.02
66312;HTU21D;53114;51.138;6.008;2022-07-18T11:05:36;44.79;9.75
66312;HTU21D;53114;51.138;6.008;2022-07-18T11:13:22;43.58;11.14
66312;HTU21D;53114;51.138;6.008;2022-07-18T11:15:54;43.50;9.96
66312;HTU21D;53114;51.138;6.008;2022-07-18T11:18:21;43.76;10.40
66312;HTU21D;53114;51.138;6.008;2022-07-18T11:20:47;43.66;10.56
66312;HTU21D;53114;51.138;6.008;2022-07-18T11:25:50;43.73;11.13
66312;HTU21D;53114;51.138;6.008;2022-07-18T11:28:17;43.61;10.51
66312;HTU21D;53114;51.138;6.008;2022-07-18T11:30:45;43.14;10.46
66312;HTU21D;53114;51.138;6.008;2022-07-18T11:33:26;42.01;11.92
66312;HTU21D;53114;51.138;6.008;2022-07-18T11:35:52;41.05;13.04
66312;HTU21D;53114;51.138;6.008;2022-07-18T11:38:18;40.63;14.50
66312;HTU21D;53114;51.138;6.008;2022-07-18T11:40:51;40.30;14.20
66312;HTU21D;53114;51.138;6.008;2022-07-18T11:43:22;39.76;14.53
66312;HTU21D;53114;51.138;6.008;2022-07-18T11:45:48;39.59;15.18
66312;HTU21D;53114;51.138;6.008;2022-07-18T11:48:23;39.33;15.81
66312;HTU21D;53114;51.138;6.008;2022-07-18T11:50:49;38.95;15.20
66312;HTU21D;53114;51.138;6.008;2022-07-18T11:53:16;38.79;15.22
66312;HTU21D;53114;51.138;6.008;2022-07-18T11:55:42;38.73;15.39
66312;HTU21D;53114;51.138;6.008;2022-07-18T11:58:13;38.79;14.89
66312;HTU21D;53114;51.138;6.008;2022-07-18T12:00:40;38.81;15.18
66312;HTU21D;53114;51.138;6.008;2022-07-18T12:03:15;38.68;14.79
66312;HTU21D;53114;51.138;6.008;2022-07-18T12:05:48;38.38;15.93
66312;HTU21D;53114;51.138;6.008;2022-07-18T12:08:47;38.03;16.22
66312;HTU21D;53114;51.138;6.008;2022-07-18T12:11:26;37.61;18.15
66312;HTU21D;53114;51.138;6.008;2022-07-18T12:14:04;37.30;18.29
66312;HTU21D;53114;51.138;6.008;2022-07-18T12:16:41;37.31;17.35
66312;HTU21D;53114;51.138;6.008;2022-07-18T12:19:09;37.29;16.61
66312;HTU21D;53114;51.138;6.008;2022-07-18T12:21:56;37.17;19.52
66312;HTU21D;53114;51.138;6.008;2022-07-18T12:24:53;37.05;17.56
66312;HTU21D;53114;51.138;6.008;2022-07-18T12:27:25;37.06;16.89
66312;HTU21D;53114;51.138;6.008;2022-07-18T12:30:11;37.05;16.71
66312;HTU21D;53114;51.138;6.008;2022-07-18T12:32:54;36.91;18.64
66312;HTU21D;53114;51.138;6.008;2022-07-18T12:35:30;36.62;19.81
66312;HTU21D;53114;51.138;6.008;2022-07-18T12:38:02;36.57;19.63
66312;HTU21D;53114;51.138;6.008;2022-07-18T12:40:54;36.55;21.16
66312;HTU21D;53114;51.138;6.008;2022-07-18T12:43:26;36.49;19.93
66312;HTU21D;53114;51.138;6.008;2022-07-18T12:45:54;36.47;20.33
66312;HTU21D;53114;51.138;6.008;2022-07-18T12:48:21;36.38;19.08
66312;HTU21D;53114;51.138;6.008;2022-07-18T12:51:03;36.30;20.23
66312;HTU21D;53114;51.138;6.008;2022-07-18T12:53:32;36.24;20.79
66312;HTU21D;53114;51.138;6.008;2022-07-18T12:55:58;36.16;22.21
66312;HTU21D;53114;51.138;6.008;2022-07-18T12:58:24;36.09;21.52
66312;HTU21D;53114;51.138;6.008;2022-07-18T13:00:50;36.16;20.21
66312;HTU21D;53114;51.138;6.008;2022-07-18T13:03:16;36.17;19.38
66312;HTU21D;53114;51.138;6.008;2022-07-18T13:05:42;36.16;19.47
66312;HTU21D;53114;51.138;6.008;2022-07-18T13:08:08;36.07;19.53
66312;HTU21D;53114;51.138;6.008;2022-07-18T13:10:38;35.99;18.54
66312;HTU21D;53114;51.138;6.008;2022-07-18T13:13:06;35.77;19.91
66312;HTU21D;53114;51.138;6.008;2022-07-18T13:15:32;35.65;19.82
66312;HTU21D;53114;51.138;6.008;2022-07-18T13:17:58;35.52;19.47
66312;HTU21D;53114;51.138;6.008;2022-07-18T13:20:24;35.47;20.33
66312;HTU21D;53114;51.138;6.008;2022-07-18T13:22:51;35.45;20.17
66312;HTU21D;53114;51.138;6.008;2022-07-18T13:25:17;35.47;20.54
66312;HTU21D;53114;51.138;6.008;2022-07-18T13:27:44;35.49;20.26
66312;HTU21D;53114;51.138;6.008;2022-07-18T13:30:10;35.48;19.18
66312;HTU21D;53114;51.138;6.008;2022-07-18T13:32:36;35.38;20.61
66312;HTU21D;53114;51.138;6.008;2022-07-18T13:35:03;35.34;19.75
66312;HTU21D;53114;51.138;6.008;2022-07-18T13:37:30;35.35;20.09
66312;HTU21D;53114;51.138;6.008;2022-07-18T13:39:56;35.39;19.44
66312;HTU21D;53114;51.138;6.008;2022-07-18T13:42:22;35.41;18.85
66312;HTU21D;53114;51.138;6.008;2022-07-18T13:44:48;35.38;18.10
66312;HTU21D;53114;51.138;6.008;2022-07-18T13:47:15;35.39;18.36
66312;HTU21D;53114;51.138;6.008;2022-07-18T13:49:41;35.38;18.38
66312;HTU21D;53114;51.138;6.008;2022-07-18T13:52:07;35.38;18.10
66312;HTU21D;53114;51.138;6.008;2022-07-18T13:54:33;35.38;18.50
66312;HTU21D;53114;51.138;6.008;2022-07-18T13:56:59;35.31;19.22
66312;HTU21D;53114;51.138;6.008;2022-07-18T13:59:25;35.28;18.22
66312;HTU21D;53114;51.138;6.008;2022-07-18T14:01:51;35.28;17.45
66312;HTU21D;53114;51.138;6.008;2022-07-18T14:04:18;35.27;18.93
66312;HTU21D;53114;51.138;6.008;2022-07-18T14:06:45;35.23;18.73
66312;HTU21D;53114;51.138;6.008;2022-07-18T14:09:11;35.25;18.15
66312;HTU21D;53114;51.138;6.008;2022-07-18T14:11:37;35.27;17.63
66312;HTU21D;53114;51.138;6.008;2022-07-18T14:14:04;35.25;18.85
66312;HTU21D;53114;51.138;6.008;2022-07-18T14:16:31;35.15;18.31
66312;HTU21D;53114;51.138;6.008;2022-07-18T14:18:57;34.95;19.04
66312;HTU21D;53114;51.138;6.008;2022-07-18T14:21:23;34.86;19.38
66312;HTU21D;53114;51.138;6.008;2022-07-18T14:23:49;34.90;20.31
66312;HTU21D;53114;51.138;6.008;2022-07-18T14:26:15;34.95;20.41
66312;HTU21D;53114;51.138;6.008;2022-07-18T14:28:42;34.92;19.46
66312;HTU21D;53114;51.138;6.008;2022-07-18T14:31:08;34.85;19.29
66312;HTU21D;53114;51.138;6.008;2022-07-18T14:33:34;34.83;20.63
66312;HTU21D;53114;51.138;6.008;2022-07-18T14:35:59;34.90;20.76
66312;HTU21D;53114;51.138;6.008;2022-07-18T14:38:25;34.94;20.48
66312;HTU21D;53114;51.138;6.008;2022-07-18T14:40:51;34.96;19.73
66312;HTU21D;53114;51.138;6.008;2022-07-18T14:43:17;34.97;19.75
66312;HTU21D;53114;51.138;6.008;2022-07-18T14:45:43;34.91;20.88
66312;HTU21D;53114;51.138;6.008;2022-07-18T14:48:09;34.91;19.05
66312;HTU21D;53114;51.138;6.008;2022-07-18T14:50:35;34.94;19.01
66312;HTU21D;53114;51.138;6.008;2022-07-18T14:53:01;34.97;18.86
66312;HTU21D;53114;51.138;6.008;2022-07-18T14:55:27;35.01;18.02
66312;HTU21D;53114;51.138;6.008;2022-07-18T14:57:53;35.06;18.10
66312;HTU21D;53114;51.138;6.008;2022-07-18T15:00:20;34.94;18.92
66312;HTU21D;53114;51.138;6.008;2022-07-18T15:02:45;34.85;17.39
66312;HTU21D;53114;51.138;6.008;2022-07-18T15:05:11;34.84;18.22
66312;HTU21D;53114;51.138;6.008;2022-07-18T15:07:38;34.93;19.47
66312;HTU21D;53114;51.138;6.008;2022-07-18T15:10:05;34.95;20.98
66312;HTU21D;53114;51.138;6.008;2022-07-18T15:12:31;34.99;21.27
66312;HTU21D;53114;51.138;6.008;2022-07-18T15:14:58;34.92;20.89
66312;HTU21D;53114;51.138;6.008;2022-07-18T15:17:24;34.80;19.23
66312;HTU21D;53114;51.138;6.008;2022-07-18T15:19:50;34.79;21.51
66312;HTU21D;53114;51.138;6.008;2022-07-18T15:22:17;34.82;20.59
66312;HTU21D;53114;51.138;6.008;2022-07-18T15:24:43;34.86;21.94
66312;HTU21D;53114;51.138;6.008;2022-07-18T15:27:09;34.82;20.80
66312;HTU21D;53114;51.138;6.008;2022-07-18T15:29:35;34.79;21.34
66312;HTU21D;53114;51.138;6.008;2022-07-18T15:32:01;34.74;21.88
66312;HTU21D;53114;51.138;6.008;2022-07-18T15:34:34;34.75;20.81
66312;HTU21D;53114;51.138;6.008;2022-07-18T15:37:00;34.88;20.05
66312;HTU21D;53114;51.138;6.008;2022-07-18T15:39:26;34.97;19.53
66312;HTU21D;53114;51.138;6.008;2022-07-18T15:41:52;35.09;19.33
66312;HTU21D;53114;51.138;6.008;2022-07-18T15:44:17;35.15;18.57
66312;HTU21D;53114;51.138;6.008;2022-07-18T15:46:43;35.13;20.30
66312;HTU21D;53114;51.138;6.008;2022-07-18T15:49:09;35.14;18.80
66312;HTU21D;53114;51.138;6.008;2022-07-18T15:51:35;35.23;18.16